Terminal Aerodrome Forecast
Issued by NWS

Home | Current Version | Previous Version | Text Only | Print | Product List | Glossary On
Versions: 1 2 3 4 5 6 7 8 9 10 11 12 13 14 15 16 17 18 19 20 21
000
FTUS43 KPAH 170718 AAA
TAFCGI
TAF AMD
KCGI 170718Z 1707/1806 17003KT P6SM FEW050 SCT250
     FM171200 23010KT P6SM VCSH SCT025 BKN040
     FM171800 23011G17KT P6SM VCTS BKN030CB
     FM180000 25007KT P6SM VCSH BKN035=

USA.gov is the U.S. government's official web portal to all federal, state and local government web resources and services.